Time;durP1;ratioP1;P1;durP2;ratioP2;P2;SDS_P1;SDS_P2;PMS_P1;PMS_P2;Temp;Humidity;BMP_temperature;BMP_pressure;BME280_temperature;BME280_humidity;BME280_pressure;Samples;Min_cycle;Max_cycle;Signal;HPM_P1;HPM_P2
2021/08/13 00:01:21;;;;;;;4.47;3.22;;;24.20;62.50;;;;;;4919472;29;20392;-80
2021/08/13 00:03:47;;;;;;;4.18;3.38;;;24.20;62.60;;;;;;4925066;29;20405;-79
2021/08/13 00:06:13;;;;;;;4.88;3.70;;;24.10;62.60;;;;;;4906138;29;20393;-79
2021/08/13 00:08:39;;;;;;;4.65;3.47;;;24.10;62.60;;;;;;4906514;29;20066;-79
2021/08/13 00:11:04;;;;;;;4.65;3.72;;;24.10;62.60;;;;;;4906857;29;20058;-80
2021/08/13 00:13:31;;;;;;;4.97;3.85;;;24.10;62.60;;;;;;4912629;29;20040;-79
2021/08/13 00:15:57;;;;;;;5.07;3.80;;;24.00;62.60;;;;;;4925523;29;20031;-82
2021/08/13 00:18:23;;;;;;;5.43;3.67;;;24.00;62.70;;;;;;4936526;29;20444;-80
2021/08/13 00:20:49;;;;;;;4.78;3.47;;;24.00;62.70;;;;;;4903502;29;20115;-80
2021/08/13 00:23:15;;;;;;;4.97;3.80;;;24.00;62.70;;;;;;4934783;29;20044;-79
2021/08/13 00:25:40;;;;;;;5.40;3.88;;;23.90;62.80;;;;;;4903419;29;20122;-80
2021/08/13 00:28:07;;;;;;;4.90;3.50;;;23.90;62.80;;;;;;4903758;29;20052;-79
2021/08/13 00:30:33;;;;;;;4.70;3.70;;;23.90;62.90;;;;;;4903243;29;20382;-79
2021/08/13 00:32:59;;;;;;;5.38;3.70;;;23.90;62.90;;;;;;4918583;29;20458;-80
2021/08/13 00:35:25;;;;;;;5.28;3.90;;;23.80;62.90;;;;;;4903122;29;20055;-79
2021/08/13 00:37:51;;;;;;;5.13;3.88;;;23.80;62.90;;;;;;4918968;29;20036;-80
2021/08/13 00:40:17;;;;;;;5.18;3.40;;;23.80;62.90;;;;;;4920199;29;20115;-79
2021/08/13 00:42:43;;;;;;;5.10;3.85;;;23.80;63.70;;;;;;4918585;29;20457;-79
2021/08/13 00:45:10;;;;;;;5.32;3.88;;;23.70;63.00;;;;;;4918541;29;20036;-80
2021/08/13 00:47:47;;;;;;;4.68;3.78;;;23.70;63.00;;;;;;4918788;29;20421;-79
2021/08/13 00:50:22;;;;;;;4.55;3.42;;;23.70;63.00;;;;;;4918995;29;20028;-79
2021/08/13 00:52:51;;;;;;;5.30;3.97;;;23.70;63.10;;;;;;4903535;29;20036;-79
2021/08/13 00:55:19;;;;;;;4.88;3.78;;;23.60;63.10;;;;;;4902776;29;20520;-80
2021/08/13 00:58:00;;;;;;;4.72;3.55;;;23.60;63.10;;;;;;4905760;29;20042;-80
2021/08/13 01:00:43;;;;;;;4.60;3.63;;;23.60;63.10;;;;;;4918605;29;20071;-81
2021/08/13 01:03:09;;;;;;;5.43;3.97;;;23.60;63.20;;;;;;4934080;29;20088;-79
2021/08/13 01:05:38;;;;;;;5.18;3.83;;;23.50;63.20;;;;;;4903014;29;20032;-80
2021/08/13 01:08:04;;;;;;;4.55;3.47;;;23.50;63.20;;;;;;4933461;29;20071;-80
2021/08/13 01:10:33;;;;;;;5.50;4.18;;;23.50;63.30;;;;;;4918874;29;20048;-79
2021/08/13 01:13:42;;;;;;;4.95;3.80;;;23.50;63.40;;;;;;4918083;29;20020;-79
2021/08/13 01:16:07;;;;;;;5.10;3.70;;;23.40;63.50;;;;;;4898434;29;20036;-80
2021/08/13 01:18:46;;;;;;;5.32;3.75;;;23.40;63.30;;;;;;4899604;29;20040;-80
2021/08/13 01:21:21;;;;;;;5.82;3.97;;;23.40;63.40;;;;;;4917995;29;20075;-79
2021/08/13 01:23:55;;;;;;;4.75;3.42;;;23.40;63.50;;;;;;4933653;29;20143;-80
2021/08/13 01:26:28;;;;;;;4.80;3.70;;;23.30;63.40;;;;;;4933864;29;20397;-80
2021/08/13 01:29:10;;;;;;;5.07;3.72;;;23.30;63.40;;;;;;4902969;29;20024;-80
2021/08/13 01:31:52;;;;;;;4.72;3.35;;;23.30;63.50;;;;;;4902372;29;20039;-80
2021/08/13 01:34:20;;;;;;;5.72;3.50;;;23.20;63.50;;;;;;4917664;29;20024;-80
2021/08/13 01:36:48;;;;;;;4.70;3.75;;;23.20;63.50;;;;;;4917315;29;20099;-80
2021/08/13 01:39:15;;;;;;;4.78;3.47;;;23.20;63.60;;;;;;4933651;29;20548;-80
2021/08/13 01:41:42;;;;;;;5.00;3.70;;;23.20;63.70;;;;;;4902847;29;20153;-80
2021/08/13 01:44:12;;;;;;;4.82;3.67;;;23.20;63.60;;;;;;4933619;29;20024;-80
2021/08/13 01:46:39;;;;;;;5.45;3.95;;;23.20;63.70;;;;;;4917307;29;20063;-81
2021/08/13 01:49:04;;;;;;;5.13;3.85;;;23.20;63.70;;;;;;4917986;29;20028;-80
2021/08/13 01:51:35;;;;;;;4.95;3.70;;;23.10;63.60;;;;;;4917645;29;20032;-81
2021/08/13 01:54:02;;;;;;;5.30;3.85;;;23.10;63.70;;;;;;4901766;29;20028;-83
2021/08/13 01:56:31;;;;;;;5.20;3.50;;;23.10;63.70;;;;;;4902696;29;20036;-84
2021/08/13 01:58:59;;;;;;;4.85;3.70;;;23.10;63.80;;;;;;4901930;29;20454;-80
2021/08/13 02:01:28;;;;;;;4.43;3.60;;;23.10;63.80;;;;;;4901503;29;20090;-80
2021/08/13 02:03:55;;;;;;;4.97;3.60;;;23.10;63.90;;;;;;4901355;29;20032;-81
2021/08/13 02:06:21;;;;;;;5.25;3.50;;;23.00;63.80;;;;;;4917381;29;20040;-81
2021/08/13 02:08:48;;;;;;;4.85;3.58;;;23.00;63.90;;;;;;4902020;29;20044;-80
2021/08/13 02:11:25;;;;;;;4.75;3.53;;;23.00;64.60;;;;;;4917289;29;20437;-80
2021/08/13 02:13:52;;;;;;;5.00;3.67;;;23.00;64.10;;;;;;4901451;29;20032;-81
2021/08/13 02:16:24;;;;;;;5.15;3.72;;;22.90;64.00;;;;;;4901371;29;20405;-78
2021/08/13 02:19:16;;;;;;;5.00;3.50;;;22.90;63.90;;;;;;4917661;29;20031;-81
2021/08/13 02:21:46;;;;;;;5.38;3.92;;;22.90;64.00;;;;;;4900364;29;20076;-80
2021/08/13 02:24:12;;;;;;;4.93;3.65;;;22.90;63.90;;;;;;4900842;29;20388;-78
2021/08/13 02:26:38;;;;;;;4.43;3.42;;;22.90;64.00;;;;;;4900725;29;20044;-78
2021/08/13 02:29:05;;;;;;;5.13;3.90;;;22.80;64.00;;;;;;4916211;29;20036;-79
2021/08/13 02:31:31;;;;;;;5.32;3.90;;;22.80;64.10;;;;;;4900549;29;20036;-77
2021/08/13 02:33:59;;;;;;;5.35;3.75;;;22.80;64.10;;;;;;4885850;29;20047;-78
2021/08/13 02:36:52;;;;;;;5.43;3.80;;;22.80;64.10;;;;;;4916543;29;20401;-77
2021/08/13 02:39:30;;;;;;;5.00;3.88;;;22.80;64.20;;;;;;4916604;29;20043;-78
2021/08/13 02:41:59;;;;;;;4.90;3.63;;;22.80;64.20;;;;;;4916874;29;20028;-78
2021/08/13 02:44:29;;;;;;;4.65;3.50;;;22.80;64.20;;;;;;4916669;29;20029;-79
2021/08/13 02:46:59;;;;;;;5.35;3.50;;;22.70;64.20;;;;;;4916632;29;20501;-79
2021/08/13 02:49:27;;;;;;;4.88;3.60;;;22.70;64.20;;;;;;4916803;29;20056;-78
2021/08/13 02:52:01;;;;;;;4.63;3.60;;;22.70;64.30;;;;;;4900911;29;20040;-78
2021/08/13 02:54:32;;;;;;;4.78;3.70;;;22.70;64.30;;;;;;4916701;29;20028;-78
2021/08/13 02:56:59;;;;;;;5.20;3.97;;;22.70;64.30;;;;;;4900536;29;20084;-78
2021/08/13 02:59:30;;;;;;;4.85;3.70;;;22.60;64.30;;;;;;4916671;29;20028;-81
2021/08/13 03:01:59;;;;;;;5.22;3.92;;;22.60;64.30;;;;;;4916516;29;20028;-77
2021/08/13 03:04:30;;;;;;;4.60;3.50;;;22.60;64.30;;;;;;4900664;29;20031;-79
2021/08/13 03:06:57;;;;;;;4.47;3.58;;;22.60;64.40;;;;;;4900683;29;20062;-80
2021/08/13 03:09:24;;;;;;;5.38;3.58;;;22.50;64.30;;;;;;4900170;29;20025;-78
2021/08/13 03:11:52;;;;;;;4.85;3.72;;;22.50;64.40;;;;;;4900627;29;20063;-78
2021/08/13 03:14:22;;;;;;;4.80;3.72;;;22.50;64.40;;;;;;4916823;29;20055;-79
2021/08/13 03:16:51;;;;;;;5.20;3.97;;;22.50;64.50;;;;;;4931939;29;20047;-78
2021/08/13 03:19:19;;;;;;;5.45;3.90;;;22.50;64.50;;;;;;4900808;29;20036;-79
2021/08/13 03:21:46;;;;;;;4.38;3.55;;;22.50;64.50;;;;;;4916050;29;20036;-79
2021/08/13 03:24:13;;;;;;;4.95;3.65;;;22.40;64.50;;;;;;4900067;29;20068;-78
2021/08/13 03:26:40;;;;;;;5.20;3.70;;;22.40;64.50;;;;;;4900409;29;20044;-78
2021/08/13 03:29:10;;;;;;;4.88;3.67;;;22.40;64.50;;;;;;4901187;29;20039;-78
2021/08/13 03:31:42;;;;;;;4.97;3.85;;;22.40;64.50;;;;;;4917677;29;20122;-79
2021/08/13 03:34:10;;;;;;;4.68;3.60;;;22.40;64.50;;;;;;4904615;29;20110;-78
2021/08/13 03:36:38;;;;;;;5.25;4.13;;;22.30;64.70;;;;;;4904283;29;20060;-79
2021/08/13 03:39:10;;;;;;;5.30;3.58;;;22.30;64.60;;;;;;4904329;29;20470;-78
2021/08/13 03:41:38;;;;;;;5.18;4.00;;;22.30;64.60;;;;;;4935866;29;20122;-78
2021/08/13 03:44:04;;;;;;;5.60;4.25;;;22.30;64.60;;;;;;4904293;29;20032;-79
2021/08/13 03:46:33;;;;;;;5.07;3.90;;;22.30;64.60;;;;;;4904358;29;20306;-78
2021/08/13 03:49:02;;;;;;;4.63;3.70;;;22.20;64.60;;;;;;4904360;29;20119;-78
2021/08/13 03:51:28;;;;;;;4.82;3.58;;;22.20;64.60;;;;;;4919581;29;20111;-78
2021/08/13 03:53:54;;;;;;;5.05;3.95;;;22.20;64.60;;;;;;4903512;29;20038;-78
2021/08/13 03:56:20;;;;;;;5.22;4.10;;;22.20;64.60;;;;;;4919476;29;20036;-78
2021/08/13 03:58:46;;;;;;;5.22;4.05;;;22.10;64.60;;;;;;4919427;29;20028;-78
2021/08/13 04:01:11;;;;;;;5.00;3.80;;;22.10;65.00;;;;;;4903762;29;20032;-78
2021/08/13 04:03:39;;;;;;;5.60;4.00;;;22.10;64.70;;;;;;4904284;29;20429;-78
2021/08/13 04:06:05;;;;;;;5.30;3.83;;;22.10;64.70;;;;;;4903771;29;20032;-80
2021/08/13 04:08:31;;;;;;;4.82;3.55;;;22.10;64.70;;;;;;4903738;29;20036;-78
2021/08/13 04:10:57;;;;;;;4.88;3.65;;;22.10;64.70;;;;;;4919838;29;20135;-78
2021/08/13 04:13:23;;;;;;;5.07;3.83;;;22.10;64.70;;;;;;4919822;29;20060;-78
2021/08/13 04:15:55;;;;;;;5.32;3.90;;;22.00;64.70;;;;;;4905288;29;20041;-79
2021/08/13 04:18:22;;;;;;;4.70;3.67;;;22.00;64.80;;;;;;4919867;29;20090;-79
2021/08/13 04:20:48;;;;;;;5.38;4.00;;;22.00;64.80;;;;;;4903543;29;20461;-78
2021/08/13 04:23:17;;;;;;;4.80;3.70;;;22.00;64.80;;;;;;4903676;29;20172;-78
2021/08/13 04:25:43;;;;;;;5.10;3.88;;;22.00;64.90;;;;;;4918704;29;20409;-78
2021/08/13 04:28:10;;;;;;;4.72;3.60;;;21.90;64.80;;;;;;4920039;29;20040;-78
2021/08/13 04:30:37;;;;;;;5.70;3.75;;;21.90;65.00;;;;;;4903359;29;20119;-78
2021/08/13 04:33:08;;;;;;;4.72;3.50;;;21.90;64.90;;;;;;4903459;29;20076;-79
2021/08/13 04:35:36;;;;;;;4.65;3.53;;;21.90;65.00;;;;;;4903282;29;20159;-78
2021/08/13 04:38:03;;;;;;;5.07;3.97;;;21.90;65.00;;;;;;4903460;29;20036;-78
2021/08/13 04:40:29;;;;;;;4.88;3.70;;;21.90;65.00;;;;;;4903215;29;20029;-78
2021/08/13 04:42:55;;;;;;;5.03;3.53;;;21.90;65.00;;;;;;4918076;29;20034;-78
2021/08/13 04:45:21;;;;;;;4.50;3.30;;;21.80;65.00;;;;;;4903095;29;20028;-78
2021/08/13 04:47:48;;;;;;;5.43;3.95;;;21.80;65.00;;;;;;4902989;29;20465;-79
2021/08/13 04:50:15;;;;;;;5.40;3.88;;;21.80;65.70;;;;;;4902789;29;20050;-78
2021/08/13 04:52:47;;;;;;;5.38;3.75;;;21.80;65.10;;;;;;4903337;29;20420;-78
2021/08/13 04:55:21;;;;;;;4.65;3.67;;;21.80;65.10;;;;;;4934514;29;20034;-78
2021/08/13 04:57:48;;;;;;;5.15;3.47;;;21.70;65.10;;;;;;4918679;29;20122;-78
2021/08/13 05:00:14;;;;;;;4.60;3.60;;;21.70;65.10;;;;;;4918244;29;20047;-78
2021/08/13 05:02:41;;;;;;;4.93;3.63;;;21.70;65.10;;;;;;4918355;29;20470;-78
2021/08/13 05:05:08;;;;;;;5.05;3.90;;;21.80;65.20;;;;;;4902781;29;20099;-78
2021/08/13 05:07:34;;;;;;;4.97;3.70;;;21.70;65.20;;;;;;4918134;29;20040;-78
2021/08/13 05:10:11;;;;;;;5.07;3.80;;;21.70;65.30;;;;;;4902920;29;20135;-78
2021/08/13 05:12:37;;;;;;;5.15;3.88;;;21.70;65.40;;;;;;4901789;29;20095;-78
2021/08/13 05:15:05;;;;;;;5.07;3.92;;;21.70;65.30;;;;;;4902743;29;20032;-79
2021/08/13 05:17:32;;;;;;;4.95;3.75;;;21.70;65.40;;;;;;4902519;29;20035;-78
2021/08/13 05:19:58;;;;;;;4.80;3.50;;;21.60;65.40;;;;;;4918221;29;20064;-80
2021/08/13 05:22:24;;;;;;;5.25;3.85;;;21.60;65.40;;;;;;4917852;29;20417;-78
2021/08/13 05:24:50;;;;;;;5.13;4.00;;;21.60;65.40;;;;;;4902004;29;20059;-78
2021/08/13 05:27:17;;;;;;;4.90;3.85;;;21.60;65.60;;;;;;4887046;29;20473;-78
2021/08/13 05:29:43;;;;;;;5.45;4.07;;;21.60;65.50;;;;;;4902140;29;20123;-79
2021/08/13 05:32:09;;;;;;;5.15;3.92;;;21.60;65.40;;;;;;4902061;29;20125;-78
2021/08/13 05:34:34;;;;;;;5.63;4.00;;;21.60;65.50;;;;;;4902000;29;20036;-78
2021/08/13 05:37:00;;;;;;;4.50;3.67;;;21.60;65.60;;;;;;4901822;29;20051;-81
2021/08/13 05:39:27;;;;;;;5.10;3.88;;;21.60;65.50;;;;;;4902050;29;20033;-78
2021/08/13 05:41:54;;;;;;;5.57;3.95;;;21.60;65.60;;;;;;4902010;29;20036;-78
2021/08/13 05:44:20;;;;;;;5.47;4.03;;;21.60;65.60;;;;;;4917511;29;20087;-78
2021/08/13 05:46:45;;;;;;;4.93;3.65;;;21.60;65.70;;;;;;4901742;29;20139;-78
2021/08/13 05:49:11;;;;;;;4.97;3.88;;;21.60;65.70;;;;;;4901387;29;20047;-79
2021/08/13 05:51:37;;;;;;;4.93;3.83;;;21.60;65.70;;;;;;4917366;29;20036;-78
2021/08/13 05:54:03;;;;;;;5.32;4.22;;;21.60;65.70;;;;;;4901471;29;20500;-80
2021/08/13 05:56:29;;;;;;;5.05;3.72;;;21.60;66.40;;;;;;4901224;29;20036;-78
2021/08/13 05:59:00;;;;;;;5.00;3.88;;;21.60;65.70;;;;;;4917246;29;20028;-79
2021/08/13 06:01:27;;;;;;;4.88;3.85;;;21.60;65.70;;;;;;4917159;29;20164;-78
2021/08/13 06:03:53;;;;;;;6.10;4.20;;;21.60;65.80;;;;;;4901662;29;20028;-78
2021/08/13 06:06:19;;;;;;;5.10;3.97;;;21.60;65.80;;;;;;4916606;29;20047;-79
2021/08/13 06:08:47;;;;;;;4.22;3.45;;;21.60;65.80;;;;;;4917320;29;20039;-78
2021/08/13 06:11:13;;;;;;;4.90;3.70;;;21.60;65.80;;;;;;4917195;29;20482;-78
2021/08/13 06:13:39;;;;;;;5.65;3.90;;;21.60;65.90;;;;;;4917006;29;20028;-78
2021/08/13 06:16:05;;;;;;;5.13;3.97;;;21.60;65.90;;;;;;4916629;29;20036;-79
2021/08/13 06:18:31;;;;;;;5.20;3.75;;;21.60;65.90;;;;;;4901232;29;20553;-78
2021/08/13 06:20:58;;;;;;;5.90;4.22;;;21.60;66.00;;;;;;4901754;29;20088;-77
2021/08/13 06:23:27;;;;;;;5.32;3.42;;;21.60;66.00;;;;;;4901542;29;20036;-78
2021/08/13 06:25:53;;;;;;;4.95;3.72;;;21.60;66.40;;;;;;4901120;29;20477;-78
2021/08/13 06:28:20;;;;;;;4.90;3.83;;;21.60;66.00;;;;;;4901002;29;20133;-78
2021/08/13 06:30:47;;;;;;;5.15;3.78;;;21.60;66.10;;;;;;4901643;29;20544;-78
2021/08/13 06:33:14;;;;;;;5.90;4.22;;;21.60;66.10;;;;;;4901224;29;20410;-78
2021/08/13 06:35:40;;;;;;;5.68;3.90;;;21.60;66.20;;;;;;4901650;29;20056;-79
2021/08/13 06:38:07;;;;;;;5.50;3.85;;;21.60;66.10;;;;;;4900919;29;20123;-77
2021/08/13 06:40:33;;;;;;;5.25;3.63;;;21.70;66.20;;;;;;4916655;29;20540;-77
2021/08/13 06:42:59;;;;;;;5.05;3.83;;;21.70;66.30;;;;;;4900901;29;20036;-78
2021/08/13 06:45:28;;;;;;;5.32;3.78;;;21.70;66.30;;;;;;4901075;29;20481;-78
2021/08/13 06:47:55;;;;;;;5.47;3.65;;;21.70;66.30;;;;;;4916291;29;20032;-78
2021/08/13 06:50:22;;;;;;;5.30;3.80;;;21.70;66.20;;;;;;4916409;29;20047;-78
2021/08/13 06:52:50;;;;;;;5.20;3.50;;;21.70;66.20;;;;;;4900786;29;20020;-78
2021/08/13 06:55:16;;;;;;;4.60;3.70;;;21.70;66.30;;;;;;4916348;29;20028;-77
2021/08/13 06:57:43;;;;;;;5.40;3.40;;;21.70;66.20;;;;;;4900674;29;20032;-78
2021/08/13 07:00:11;;;;;;;5.35;3.88;;;21.70;66.30;;;;;;4900860;29;20036;-79
2021/08/13 07:02:38;;;;;;;4.93;3.55;;;21.80;66.30;;;;;;4901419;29;20024;-78
2021/08/13 07:05:05;;;;;;;5.18;3.78;;;21.80;66.30;;;;;;4900654;29;20051;-79
2021/08/13 07:07:31;;;;;;;4.30;3.20;;;21.80;66.30;;;;;;4899745;29;20035;-78
2021/08/13 07:09:58;;;;;;;5.15;3.65;;;21.80;66.30;;;;;;4916286;29;20043;-79
2021/08/13 07:12:24;;;;;;;5.28;3.75;;;21.90;66.30;;;;;;4916081;29;20042;-78
2021/08/13 07:14:49;;;;;;;5.00;3.63;;;21.90;66.30;;;;;;4900196;29;20036;-77
2021/08/13 07:17:16;;;;;;;4.75;3.60;;;21.80;66.30;;;;;;4900471;29;20039;-78
2021/08/13 07:19:41;;;;;;;5.55;3.63;;;21.90;66.30;;;;;;4900436;29;20040;-78
2021/08/13 07:22:08;;;;;;;4.72;3.30;;;21.90;66.30;;;;;;4900439;29;20385;-78
2021/08/13 07:24:34;;;;;;;4.93;3.70;;;21.90;66.20;;;;;;4916054;29;20056;-78
2021/08/13 07:27:00;;;;;;;5.13;3.58;;;21.90;66.30;;;;;;4900478;29;20550;-77
2021/08/13 07:29:26;;;;;;;5.20;3.65;;;21.90;66.20;;;;;;4900310;29;20036;-78
2021/08/13 07:31:53;;;;;;;4.53;3.60;;;22.00;66.30;;;;;;4900481;29;20044;-78
2021/08/13 07:34:19;;;;;;;5.63;3.65;;;22.00;66.30;;;;;;4900458;29;20029;-77
2021/08/13 07:36:46;;;;;;;5.75;3.63;;;22.00;66.20;;;;;;4900351;29;20044;-78
2021/08/13 07:39:15;;;;;;;5.40;3.35;;;22.00;66.10;;;;;;4901390;29;20361;-78
2021/08/13 07:41:41;;;;;;;4.68;3.53;;;22.10;66.30;;;;;;4900433;29;20035;-78
2021/08/13 07:44:07;;;;;;;4.47;3.53;;;22.10;66.10;;;;;;4915911;29;20384;-78
2021/08/13 07:46:32;;;;;;;4.97;3.75;;;22.10;66.10;;;;;;4916031;29;20032;-78
2021/08/13 07:48:59;;;;;;;5.03;3.60;;;22.10;66.10;;;;;;4900966;29;20132;-78
2021/08/13 07:51:26;;;;;;;4.80;3.40;;;22.10;66.10;;;;;;4916462;29;20040;-77
2021/08/13 07:53:53;;;;;;;5.28;3.55;;;22.20;66.20;;;;;;4900103;29;20044;-77
2021/08/13 07:56:20;;;;;;;5.30;3.72;;;22.20;66.20;;;;;;4901547;29;20390;-78
2021/08/13 07:58:46;;;;;;;7.05;3.80;;;22.20;66.10;;;;;;4900134;29;20029;-77
2021/08/13 08:01:12;;;;;;;4.80;3.58;;;22.20;66.10;;;;;;4915985;29;20213;-78
2021/08/13 08:03:37;;;;;;;4.93;3.67;;;22.20;66.10;;;;;;4900921;29;20039;-79
2021/08/13 08:06:04;;;;;;;4.95;3.53;;;22.30;66.20;;;;;;4916073;29;20044;-78
2021/08/13 08:08:30;;;;;;;5.32;4.07;;;22.30;66.10;;;;;;4915733;29;20437;-78
2021/08/13 08:10:56;;;;;;;5.65;3.83;;;22.30;66.20;;;;;;4915417;29;20048;-78
2021/08/13 08:13:21;;;;;;;6.13;4.22;;;22.30;66.00;;;;;;4915920;29;20028;-78
2021/08/13 08:15:47;;;;;;;5.88;4.00;;;22.40;66.10;;;;;;4916010;29;20112;-79
2021/08/13 08:18:13;;;;;;;5.85;3.78;;;22.40;66.00;;;;;;4916697;29;20127;-79
2021/08/13 08:20:39;;;;;;;5.43;3.90;;;22.40;66.00;;;;;;4903608;29;20500;-79
2021/08/13 08:23:06;;;;;;;5.20;3.90;;;22.50;66.00;;;;;;4903649;29;20038;-78
2021/08/13 08:25:32;;;;;;;6.25;3.90;;;22.50;66.00;;;;;;4903676;29;20059;-78
2021/08/13 08:27:58;;;;;;;4.80;3.38;;;22.50;65.90;;;;;;4920100;29;20446;-78
2021/08/13 08:30:24;;;;;;;4.78;3.38;;;22.60;65.90;;;;;;4903465;29;20433;-79
2021/08/13 08:32:49;;;;;;;5.25;3.70;;;22.60;65.80;;;;;;4919341;29;20031;-78
2021/08/13 08:35:15;;;;;;;4.70;3.55;;;22.60;65.80;;;;;;4920304;29;20047;-78
2021/08/13 08:37:55;;;;;;;4.63;3.42;;;22.70;65.80;;;;;;4919019;29;20036;-78
2021/08/13 08:40:36;;;;;;;4.82;3.25;;;22.70;65.80;;;;;;4920220;29;20032;-78
2021/08/13 08:43:05;;;;;;;5.45;3.90;;;22.80;65.70;;;;;;4920136;29;20040;-78
2021/08/13 08:45:34;;;;;;;5.05;3.53;;;22.80;65.50;;;;;;4918906;29;20027;-79
2021/08/13 08:48:18;;;;;;;5.57;3.65;;;22.90;65.50;;;;;;4918334;29;20060;-79
2021/08/13 08:50:44;;;;;;;4.93;3.30;;;23.00;65.70;;;;;;4903217;29;20048;-78
2021/08/13 08:53:23;;;;;;;4.38;2.88;;;23.00;65.40;;;;;;4902951;29;20492;-78
2021/08/13 08:55:50;;;;;;;5.18;3.22;;;23.10;65.50;;;;;;4919281;29;20042;-79
2021/08/13 08:58:17;;;;;;;4.45;3.13;;;23.10;65.30;;;;;;4918669;29;20096;-79
2021/08/13 09:00:45;;;;;;;4.53;3.08;;;23.10;65.30;;;;;;4918539;29;20040;-79
2021/08/13 09:03:12;;;;;;;4.68;3.00;;;23.20;65.20;;;;;;4919766;29;20047;-79
2021/08/13 09:05:38;;;;;;;4.25;3.10;;;23.30;65.20;;;;;;4920230;29;20470;-78
2021/08/13 09:08:04;;;;;;;4.47;2.88;;;23.30;65.10;;;;;;4918734;29;20413;-78
2021/08/13 09:10:30;;;;;;;4.32;2.88;;;23.40;65.20;;;;;;4918175;29;20062;-79
2021/08/13 09:13:02;;;;;;;4.15;2.75;;;23.50;65.00;;;;;;4918080;29;20115;-79
2021/08/13 09:15:31;;;;;;;3.65;2.60;;;23.50;64.90;;;;;;4919822;29;20044;-79
2021/08/13 09:18:14;;;;;;;4.35;3.00;;;23.60;64.80;;;;;;4919707;29;20035;-79
2021/08/13 09:20:52;;;;;;;3.42;2.47;;;23.60;64.80;;;;;;4919449;29;20048;-80
2021/08/13 09:23:34;;;;;;;4.15;2.60;;;23.70;64.70;;;;;;4918379;29;20164;-80
2021/08/13 09:26:11;;;;;;;5.25;3.00;;;23.80;64.70;;;;;;4920042;29;20118;-79
2021/08/13 09:29:01;;;;;;;4.03;2.65;;;23.90;64.70;;;;;;4919006;29;20051;-79
2021/08/13 09:31:51;;;;;;;;;;;24.00;64.50;;;;;;4926695;29;20037;-79
2021/08/13 09:34:29;;;;;;;2.60;1.95;;;24.00;64.30;;;;;;4903112;29;20321;-79
2021/08/13 09:36:55;;;;;;;3.47;2.42;;;24.10;64.30;;;;;;4901883;29;20473;-78
2021/08/13 09:39:29;;;;;;;3.28;2.45;;;24.10;64.30;;;;;;4919083;29;20032;-79
2021/08/13 09:42:00;;;;;;;3.95;2.42;;;24.20;64.30;;;;;;4918575;29;20441;-79
2021/08/13 09:44:27;;;;;;;3.53;2.40;;;24.30;64.20;;;;;;4902063;29;20032;-80
2021/08/13 09:46:58;;;;;;;3.38;2.40;;;24.40;64.20;;;;;;4902432;29;20031;-78
2021/08/13 09:49:25;;;;;;;4.40;2.70;;;24.40;64.10;;;;;;4901652;29;20485;-78
2021/08/13 09:51:51;;;;;;;2.80;2.22;;;24.40;64.00;;;;;;4917357;29;20024;-79
2021/08/13 09:54:17;;;;;;;3.60;2.40;;;24.50;64.00;;;;;;4917288;29;20060;-84
2021/08/13 09:56:42;;;;;;;3.88;2.47;;;24.60;64.00;;;;;;4918548;29;20028;-79
2021/08/13 09:59:17;;;;;;;3.70;2.53;;;24.70;63.90;;;;;;4901687;29;20127;-79
2021/08/13 10:01:45;;;;;;;3.15;2.28;;;24.70;63.90;;;;;;4901691;29;20032;-79
2021/08/13 10:04:12;;;;;;;3.92;2.60;;;24.80;63.80;;;;;;4917002;29;20385;-79
2021/08/13 10:06:41;;;;;;;3.70;2.50;;;24.80;63.70;;;;;;4901721;29;20047;-78
2021/08/13 10:09:27;;;;;;;3.38;2.50;;;24.80;63.60;;;;;;4901182;29;20032;-80
2021/08/13 10:12:00;;;;;;;4.05;2.63;;;24.90;63.70;;;;;;4901592;29;20608;-79
2021/08/13 10:14:40;;;;;;;3.42;2.35;;;25.00;63.60;;;;;;4933741;29;20476;-79
2021/08/13 10:17:20;;;;;;;3.03;2.00;;;25.10;63.60;;;;;;4901842;29;20561;-79
2021/08/13 10:19:53;;;;;;;3.10;2.20;;;25.10;63.60;;;;;;4917122;29;20036;-78
2021/08/13 10:22:20;;;;;;;3.63;2.20;;;25.10;63.40;;;;;;4901439;29;20445;-79
2021/08/13 10:24:48;;;;;;;3.17;2.25;;;25.20;63.40;;;;;;4916574;29;20107;-78
2021/08/13 10:27:18;;;;;;;2.50;2.00;;;25.20;63.30;;;;;;4901009;29;20032;-78
2021/08/13 10:29:49;;;;;;;3.13;2.25;;;25.30;63.30;;;;;;4917478;29;20051;-78
2021/08/13 10:32:22;;;;;;;2.92;2.35;;;25.30;63.20;;;;;;4916972;29;20040;-77
2021/08/13 10:34:48;;;;;;;3.42;2.40;;;25.30;63.10;;;;;;4916555;29;20393;-77
2021/08/13 10:37:15;;;;;;;2.85;2.10;;;25.40;63.20;;;;;;4900787;29;20036;-77
2021/08/13 10:39:46;;;;;;;3.70;2.45;;;25.40;63.00;;;;;;4916660;29;20103;-78
2021/08/13 10:42:21;;;;;;;4.55;2.38;;;25.40;62.90;;;;;;4900396;29;20040;-78
2021/08/13 10:44:56;;;;;;;3.60;2.38;;;25.50;62.90;;;;;;4932484;29;20053;-78
2021/08/13 10:47:29;;;;;;;4.38;2.40;;;25.50;62.80;;;;;;4916984;29;20039;-78
2021/08/13 10:49:57;;;;;;;3.40;2.22;;;25.60;62.70;;;;;;4916413;29;20040;-78
2021/08/13 10:52:36;;;;;;;3.80;2.45;;;25.60;62.60;;;;;;4900887;29;20035;-79
2021/08/13 10:55:08;;;;;;;4.38;2.17;;;25.70;62.70;;;;;;4917116;29;20413;-78
2021/08/13 10:57:50;;;;;;;5.00;2.50;;;25.70;62.50;;;;;;4932121;29;20039;-78
2021/08/13 11:00:21;;;;;;;3.20;2.28;;;25.80;62.60;;;;;;4915925;29;20053;-78
2021/08/13 11:03:15;;;;;;;3.85;2.45;;;25.80;62.40;;;;;;4900843;29;20407;-78
2021/08/13 11:05:55;;;;;;;3.85;2.15;;;25.90;62.60;;;;;;4901242;29;20028;-78
2021/08/13 11:08:23;;;;;;;2.90;2.15;;;25.90;62.40;;;;;;4916443;29;20036;-80
2021/08/13 11:10:56;;;;;;;3.10;2.28;;;25.90;62.30;;;;;;4901536;29;20032;-78
2021/08/13 11:13:23;;;;;;;3.95;2.40;;;26.00;62.30;;;;;;4916127;29;20036;-78
2021/08/13 11:15:54;;;;;;;3.78;2.35;;;26.00;62.30;;;;;;4901330;29;20082;-78
2021/08/13 11:18:40;;;;;;;4.30;2.40;;;26.10;62.30;;;;;;4901218;29;20044;-78
2021/08/13 11:21:09;;;;;;;3.53;2.38;;;26.00;62.30;;;;;;4918217;29;20040;-78
2021/08/13 11:23:56;;;;;;;4.10;2.50;;;26.10;62.20;;;;;;4916086;29;20050;-78
2021/08/13 11:26:50;;;;;;;3.58;2.30;;;26.10;62.40;;;;;;4916250;29;20042;-78
2021/08/13 11:29:29;;;;;;;4.22;2.10;;;26.10;62.30;;;;;;4900416;29;20032;-78
2021/08/13 11:32:10;;;;;;;3.67;1.95;;;26.20;62.40;;;;;;4916199;29;20035;-77
2021/08/13 11:34:48;;;;;;;4.05;2.22;;;26.20;62.30;;;;;;4927391;29;20044;-78
2021/08/13 11:37:37;;;;;;;3.47;2.10;;;26.30;62.50;;;;;;4916249;29;20040;-77
2021/08/13 11:40:26;;;;;;;3.63;2.20;;;26.30;62.60;;;;;;4916589;29;20369;-77
2021/08/13 11:42:52;;;;;;;2.60;1.60;;;26.30;62.50;;;;;;4912377;29;20047;-76
2021/08/13 11:45:32;;;;;;;2.53;1.83;;;26.40;62.60;;;;;;4900288;29;20032;-78
2021/08/13 11:48:01;;;;;;;2.97;2.03;;;26.40;62.60;;;;;;4931925;29;20172;-79
2021/08/13 11:50:28;;;;;;;3.33;2.00;;;26.40;62.60;;;;;;4916074;29;20087;-79
2021/08/13 11:52:55;;;;;;;3.17;2.10;;;26.40;62.60;;;;;;4917889;29;20358;-78
2021/08/13 11:55:22;;;;;;;3.35;1.92;;;26.40;62.60;;;;;;4919626;29;20036;-78
2021/08/13 11:57:52;;;;;;;4.05;2.20;;;26.50;62.70;;;;;;4904443;29;20357;-78
2021/08/13 12:00:20;;;;;;;3.63;2.13;;;26.50;62.70;;;;;;4919320;29;20032;-78
2021/08/13 12:02:46;;;;;;;3.67;2.13;;;26.60;62.80;;;;;;4903753;29;20028;-78
2021/08/13 12:05:14;;;;;;;2.90;1.75;;;26.50;62.70;;;;;;4903607;29;20064;-77
2021/08/13 12:07:41;;;;;;;3.17;1.90;;;26.60;62.70;;;;;;4903628;29;20520;-77
2021/08/13 12:10:12;;;;;;;3.67;2.00;;;26.60;62.70;;;;;;4934708;29;20124;-78
2021/08/13 12:12:39;;;;;;;2.80;1.77;;;26.70;62.80;;;;;;4903762;29;20075;-78
2021/08/13 12:15:06;;;;;;;3.35;1.90;;;26.70;62.70;;;;;;4919151;29;20028;-77
2021/08/13 12:17:32;;;;;;;3.63;1.90;;;26.70;62.60;;;;;;4934989;29;20028;-77
2021/08/13 12:20:00;;;;;;;3.53;1.98;;;26.80;62.50;;;;;;4903586;29;20043;-78
2021/08/13 12:22:39;;;;;;;2.92;1.85;;;26.80;62.60;;;;;;4903754;29;20127;-78
2021/08/13 12:25:12;;;;;;;3.28;2.10;;;26.80;62.50;;;;;;4918855;29;20414;-79
2021/08/13 12:27:42;;;;;;;3.38;2.08;;;26.80;62.40;;;;;;4903549;29;20045;-78
2021/08/13 12:30:23;;;;;;;3.35;1.95;;;26.90;62.40;;;;;;4903385;29;20040;-78
2021/08/13 12:32:52;;;;;;;3.22;1.60;;;26.90;62.30;;;;;;4934660;29;20024;-78
2021/08/13 12:35:20;;;;;;;2.85;1.88;;;26.90;62.10;;;;;;4903353;29;20035;-78
2021/08/13 12:37:45;;;;;;;3.13;2.00;;;26.90;62.10;;;;;;4903071;29;20036;-81
2021/08/13 12:40:14;;;;;;;2.92;1.67;;;27.00;62.10;;;;;;4918644;29;20409;-78
2021/08/13 12:42:44;;;;;;;2.88;1.67;;;27.00;62.00;;;;;;4918781;29;20163;-78
2021/08/13 12:45:12;;;;;;;2.83;1.70;;;27.00;62.00;;;;;;4903618;29;20035;-78
2021/08/13 12:47:40;;;;;;;2.47;1.70;;;27.00;61.90;;;;;;4918777;29;20072;-78
2021/08/13 12:50:14;;;;;;;2.90;1.80;;;27.10;62.20;;;;;;4902979;29;20047;-78
2021/08/13 12:52:40;;;;;;;3.43;1.70;;;27.10;61.80;;;;;;4918773;29;20039;-78
2021/08/13 12:55:14;;;;;;;2.50;1.77;;;27.10;61.70;;;;;;4902395;29;20288;-79
2021/08/13 12:57:39;;;;;;;;;;;27.10;61.60;;;;;;4918450;29;20040;-78
2021/08/13 13:00:11;;;;;;;2.50;1.60;;;27.20;61.80;;;;;;4903532;29;19922;-79